sensor_id;sensor_type;location;lat;lon;timestamp;P1;durP1;ratioP1;P2;durP2;ratioP2
17524;SDS011;40431;52.198;9.902;2023-08-24T00:00:17;5.40;;;2.50;;
17524;SDS011;40431;52.198;9.902;2023-08-24T00:02:44;2.87;;;2.67;;
17524;SDS011;40431;52.198;9.902;2023-08-24T00:05:10;2.53;;;2.33;;
17524;SDS011;40431;52.198;9.902;2023-08-24T00:07:38;2.90;;;2.70;;
17524;SDS011;40431;52.198;9.902;2023-08-24T00:10:04;3.87;;;2.10;;
17524;SDS011;40431;52.198;9.902;2023-08-24T00:12:34;2.50;;;2.30;;
17524;SDS011;40431;52.198;9.902;2023-08-24T00:15:01;2.70;;;2.47;;
17524;SDS011;40431;52.198;9.902;2023-08-24T00:17:28;3.27;;;2.27;;
17524;SDS011;40431;52.198;9.902;2023-08-24T00:19:55;2.83;;;2.63;;
17524;SDS011;40431;52.198;9.902;2023-08-24T00:22:21;3.10;;;2.37;;
17524;SDS011;40431;52.198;9.902;2023-08-24T00:24:48;2.97;;;2.67;;
17524;SDS011;40431;52.198;9.902;2023-08-24T00:27:14;2.60;;;2.40;;
17524;SDS011;40431;52.198;9.902;2023-08-24T00:29:42;2.43;;;2.23;;
17524;SDS011;40431;52.198;9.902;2023-08-24T00:32:08;3.10;;;2.80;;
17524;SDS011;40431;52.198;9.902;2023-08-24T00:34:35;2.97;;;2.77;;
17524;SDS011;40431;52.198;9.902;2023-08-24T00:37:01;5.00;;;2.60;;
17524;SDS011;40431;52.198;9.902;2023-08-24T00:39:28;7.40;;;3.03;;
17524;SDS011;40431;52.198;9.902;2023-08-24T00:41:54;3.53;;;3.23;;
17524;SDS011;40431;52.198;9.902;2023-08-24T00:44:20;3.80;;;2.90;;
17524;SDS011;40431;52.198;9.902;2023-08-24T00:46:48;3.93;;;3.47;;
17524;SDS011;40431;52.198;9.902;2023-08-24T00:49:15;3.33;;;3.03;;
17524;SDS011;40431;52.198;9.902;2023-08-24T00:51:41;4.70;;;3.43;;
17524;SDS011;40431;52.198;9.902;2023-08-24T00:54:07;3.50;;;3.27;;
17524;SDS011;40431;52.198;9.902;2023-08-24T00:56:34;4.73;;;4.33;;
17524;SDS011;40431;52.198;9.902;2023-08-24T00:59:00;4.23;;;3.93;;
17524;SDS011;40431;52.198;9.902;2023-08-24T01:01:27;4.57;;;4.07;;
17524;SDS011;40431;52.198;9.902;2023-08-24T01:03:55;4.27;;;3.97;;
17524;SDS011;40431;52.198;9.902;2023-08-24T01:06:21;4.07;;;3.83;;
17524;SDS011;40431;52.198;9.902;2023-08-24T01:08:48;5.03;;;4.40;;
17524;SDS011;40431;52.198;9.902;2023-08-24T01:11:16;5.00;;;4.50;;
17524;SDS011;40431;52.198;9.902;2023-08-24T01:13:53;3.70;;;3.40;;
17524;SDS011;40431;52.198;9.902;2023-08-24T01:16:27;5.40;;;4.30;;
17524;SDS011;40431;52.198;9.902;2023-08-24T01:18:57;4.60;;;4.30;;
17524;SDS011;40431;52.198;9.902;2023-08-24T01:21:26;4.57;;;4.17;;
17524;SDS011;40431;52.198;9.902;2023-08-24T01:23:53;4.10;;;3.80;;
17524;SDS011;40431;52.198;9.902;2023-08-24T01:26:27;4.83;;;4.30;;
17524;SDS011;40431;52.198;9.902;2023-08-24T01:28:54;4.60;;;4.23;;
17524;SDS011;40431;52.198;9.902;2023-08-24T01:31:22;4.57;;;4.20;;
17524;SDS011;40431;52.198;9.902;2023-08-24T01:33:51;4.60;;;4.13;;
17524;SDS011;40431;52.198;9.902;2023-08-24T01:36:17;3.83;;;3.50;;
17524;SDS011;40431;52.198;9.902;2023-08-24T01:38:44;4.00;;;3.70;;
17524;SDS011;40431;52.198;9.902;2023-08-24T01:41:20;3.33;;;3.13;;
17524;SDS011;40431;52.198;9.902;2023-08-24T01:43:52;3.40;;;3.10;;
17524;SDS011;40431;52.198;9.902;2023-08-24T01:46:21;3.60;;;3.30;;
17524;SDS011;40431;52.198;9.902;2023-08-24T01:48:50;4.73;;;3.40;;
17524;SDS011;40431;52.198;9.902;2023-08-24T01:51:18;3.60;;;3.30;;
17524;SDS011;40431;52.198;9.902;2023-08-24T01:53:45;3.60;;;3.30;;
17524;SDS011;40431;52.198;9.902;2023-08-24T01:56:12;3.77;;;3.47;;
17524;SDS011;40431;52.198;9.902;2023-08-24T01:58:39;3.97;;;3.77;;
17524;SDS011;40431;52.198;9.902;2023-08-24T02:01:07;4.53;;;3.17;;
17524;SDS011;40431;52.198;9.902;2023-08-24T02:03:35;3.77;;;3.20;;
17524;SDS011;40431;52.198;9.902;2023-08-24T02:06:03;4.37;;;3.43;;
17524;SDS011;40431;52.198;9.902;2023-08-24T02:08:31;3.50;;;3.23;;
17524;SDS011;40431;52.198;9.902;2023-08-24T02:10:58;3.77;;;3.57;;
17524;SDS011;40431;52.198;9.902;2023-08-24T02:13:24;4.13;;;3.70;;
17524;SDS011;40431;52.198;9.902;2023-08-24T02:15:53;4.13;;;3.73;;
17524;SDS011;40431;52.198;9.902;2023-08-24T02:18:28;3.70;;;3.50;;
17524;SDS011;40431;52.198;9.902;2023-08-24T02:20:54;4.37;;;4.00;;
17524;SDS011;40431;52.198;9.902;2023-08-24T02:23:21;4.30;;;4.10;;
17524;SDS011;40431;52.198;9.902;2023-08-24T02:25:47;4.20;;;3.80;;
17524;SDS011;40431;52.198;9.902;2023-08-24T02:28:13;4.97;;;4.60;;
17524;SDS011;40431;52.198;9.902;2023-08-24T02:30:40;4.30;;;3.90;;
17524;SDS011;40431;52.198;9.902;2023-08-24T02:33:06;6.33;;;4.37;;
17524;SDS011;40431;52.198;9.902;2023-08-24T02:35:34;4.73;;;4.40;;
17524;SDS011;40431;52.198;9.902;2023-08-24T02:38:01;5.13;;;4.87;;
17524;SDS011;40431;52.198;9.902;2023-08-24T02:40:27;4.97;;;4.67;;
17524;SDS011;40431;52.198;9.902;2023-08-24T02:42:53;5.20;;;4.70;;
17524;SDS011;40431;52.198;9.902;2023-08-24T02:45:20;5.73;;;5.23;;
17524;SDS011;40431;52.198;9.902;2023-08-24T02:47:46;4.90;;;4.40;;
17524;SDS011;40431;52.198;9.902;2023-08-24T02:50:13;5.73;;;4.70;;
17524;SDS011;40431;52.198;9.902;2023-08-24T02:52:40;5.67;;;5.27;;
17524;SDS011;40431;52.198;9.902;2023-08-24T02:55:07;4.97;;;4.57;;
17524;SDS011;40431;52.198;9.902;2023-08-24T02:57:35;4.77;;;4.40;;
17524;SDS011;40431;52.198;9.902;2023-08-24T03:00:01;4.50;;;4.10;;
17524;SDS011;40431;52.198;9.902;2023-08-24T03:02:28;4.53;;;4.13;;
17524;SDS011;40431;52.198;9.902;2023-08-24T03:04:54;4.37;;;4.07;;
17524;SDS011;40431;52.198;9.902;2023-08-24T03:07:21;4.10;;;3.87;;
17524;SDS011;40431;52.198;9.902;2023-08-24T03:09:49;4.23;;;3.80;;
17524;SDS011;40431;52.198;9.902;2023-08-24T03:12:15;6.47;;;3.77;;
17524;SDS011;40431;52.198;9.902;2023-08-24T03:14:42;4.83;;;4.27;;
17524;SDS011;40431;52.198;9.902;2023-08-24T03:17:08;4.47;;;4.07;;
17524;SDS011;40431;52.198;9.902;2023-08-24T03:19:34;5.23;;;4.10;;
17524;SDS011;40431;52.198;9.902;2023-08-24T03:22:01;4.17;;;3.87;;
17524;SDS011;40431;52.198;9.902;2023-08-24T03:24:27;4.30;;;4.00;;
17524;SDS011;40431;52.198;9.902;2023-08-24T03:26:55;4.20;;;3.80;;
17524;SDS011;40431;52.198;9.902;2023-08-24T03:29:21;4.90;;;4.53;;
17524;SDS011;40431;52.198;9.902;2023-08-24T03:31:48;4.67;;;4.37;;
17524;SDS011;40431;52.198;9.902;2023-08-24T03:34:14;5.27;;;4.20;;
17524;SDS011;40431;52.198;9.902;2023-08-24T03:36:41;4.83;;;4.43;;
17524;SDS011;40431;52.198;9.902;2023-08-24T03:39:08;5.30;;;4.97;;
17524;SDS011;40431;52.198;9.902;2023-08-24T03:41:34;6.57;;;4.90;;
17524;SDS011;40431;52.198;9.902;2023-08-24T03:44:02;6.10;;;5.60;;
17524;SDS011;40431;52.198;9.902;2023-08-24T03:46:28;5.77;;;5.37;;
17524;SDS011;40431;52.198;9.902;2023-08-24T03:48:55;6.10;;;5.70;;
17524;SDS011;40431;52.198;9.902;2023-08-24T03:51:21;6.73;;;6.23;;
17524;SDS011;40431;52.198;9.902;2023-08-24T03:53:48;6.47;;;6.07;;
17524;SDS011;40431;52.198;9.902;2023-08-24T03:56:14;6.50;;;6.00;;
17524;SDS011;40431;52.198;9.902;2023-08-24T03:58:40;6.30;;;5.70;;
17524;SDS011;40431;52.198;9.902;2023-08-24T04:01:11;5.67;;;5.37;;
17524;SDS011;40431;52.198;9.902;2023-08-24T04:03:37;6.53;;;6.03;;
17524;SDS011;40431;52.198;9.902;2023-08-24T04:06:04;6.87;;;6.40;;
17524;SDS011;40431;52.198;9.902;2023-08-24T04:08:31;6.70;;;6.17;;
17524;SDS011;40431;52.198;9.902;2023-08-24T04:10:57;6.03;;;5.53;;
17524;SDS011;40431;52.198;9.902;2023-08-24T04:13:23;5.87;;;5.47;;
17524;SDS011;40431;52.198;9.902;2023-08-24T04:15:50;5.80;;;5.40;;
17524;SDS011;40431;52.198;9.902;2023-08-24T04:18:18;6.13;;;5.53;;
17524;SDS011;40431;52.198;9.902;2023-08-24T04:20:44;6.77;;;5.70;;
17524;SDS011;40431;52.198;9.902;2023-08-24T04:23:12;5.57;;;5.23;;
17524;SDS011;40431;52.198;9.902;2023-08-24T04:25:39;6.10;;;5.60;;
17524;SDS011;40431;52.198;9.902;2023-08-24T04:28:06;7.47;;;6.00;;
17524;SDS011;40431;52.198;9.902;2023-08-24T04:30:32;6.70;;;6.20;;
17524;SDS011;40431;52.198;9.902;2023-08-24T04:32:59;8.10;;;6.90;;
17524;SDS011;40431;52.198;9.902;2023-08-24T04:35:27;7.33;;;6.90;;
17524;SDS011;40431;52.198;9.902;2023-08-24T04:37:53;7.30;;;6.80;;
17524;SDS011;40431;52.198;9.902;2023-08-24T04:40:20;6.93;;;6.40;;
17524;SDS011;40431;52.198;9.902;2023-08-24T04:42:46;7.10;;;6.70;;
17524;SDS011;40431;52.198;9.902;2023-08-24T04:45:13;7.63;;;7.03;;
17524;SDS011;40431;52.198;9.902;2023-08-24T04:47:39;7.63;;;7.13;;
17524;SDS011;40431;52.198;9.902;2023-08-24T04:50:06;7.70;;;7.20;;
17524;SDS011;40431;52.198;9.902;2023-08-24T04:52:35;7.67;;;6.97;;
17524;SDS011;40431;52.198;9.902;2023-08-24T04:55:01;7.93;;;7.33;;
17524;SDS011;40431;52.198;9.902;2023-08-24T04:57:28;9.77;;;8.77;;
17524;SDS011;40431;52.198;9.902;2023-08-24T04:59:55;8.73;;;8.17;;
17524;SDS011;40431;52.198;9.902;2023-08-24T05:02:21;7.60;;;6.90;;
17524;SDS011;40431;52.198;9.902;2023-08-24T05:04:48;9.03;;;8.53;;
17524;SDS011;40431;52.198;9.902;2023-08-24T05:07:14;10.20;;;9.47;;
17524;SDS011;40431;52.198;9.902;2023-08-24T05:09:42;9.83;;;9.00;;
17524;SDS011;40431;52.198;9.902;2023-08-24T05:12:08;9.07;;;8.47;;
17524;SDS011;40431;52.198;9.902;2023-08-24T05:14:35;9.67;;;8.87;;
17524;SDS011;40431;52.198;9.902;2023-08-24T05:17:01;8.20;;;7.60;;
17524;SDS011;40431;52.198;9.902;2023-08-24T05:19:27;8.50;;;7.80;;
17524;SDS011;40431;52.198;9.902;2023-08-24T05:21:54;9.50;;;8.80;;
17524;SDS011;40431;52.198;9.902;2023-08-24T05:24:20;9.47;;;7.93;;
17524;SDS011;40431;52.198;9.902;2023-08-24T05:26:48;9.00;;;8.30;;
17524;SDS011;40431;52.198;9.902;2023-08-24T05:29:14;8.47;;;7.83;;
17524;SDS011;40431;52.198;9.902;2023-08-24T05:31:40;8.80;;;8.23;;
17524;SDS011;40431;52.198;9.902;2023-08-24T05:34:07;6.10;;;5.60;;
17524;SDS011;40431;52.198;9.902;2023-08-24T05:36:33;6.90;;;6.40;;
17524;SDS011;40431;52.198;9.902;2023-08-24T05:39:00;6.93;;;6.43;;
17524;SDS011;40431;52.198;9.902;2023-08-24T05:41:26;6.87;;;6.20;;
17524;SDS011;40431;52.198;9.902;2023-08-24T05:43:54;7.30;;;6.80;;
17524;SDS011;40431;52.198;9.902;2023-08-24T05:46:22;6.97;;;6.43;;
17524;SDS011;40431;52.198;9.902;2023-08-24T05:48:48;7.87;;;7.27;;
17524;SDS011;40431;52.198;9.902;2023-08-24T05:51:15;7.90;;;7.40;;
17524;SDS011;40431;52.198;9.902;2023-08-24T05:53:41;7.50;;;6.97;;
17524;SDS011;40431;52.198;9.902;2023-08-24T05:56:07;7.63;;;7.03;;
17524;SDS011;40431;52.198;9.902;2023-08-24T05:58:34;8.23;;;7.40;;
17524;SDS011;40431;52.198;9.902;2023-08-24T06:01:01;8.20;;;7.50;;
17524;SDS011;40431;52.198;9.902;2023-08-24T06:03:28;8.30;;;7.77;;
17524;SDS011;40431;52.198;9.902;2023-08-24T06:06:00;8.23;;;7.73;;
17524;SDS011;40431;52.198;9.902;2023-08-24T06:08:27;7.67;;;7.17;;
17524;SDS011;40431;52.198;9.902;2023-08-24T06:10:53;7.60;;;7.20;;
17524;SDS011;40431;52.198;9.902;2023-08-24T06:13:20;8.23;;;7.63;;
17524;SDS011;40431;52.198;9.902;2023-08-24T06:15:46;8.60;;;8.00;;
17524;SDS011;40431;52.198;9.902;2023-08-24T06:18:14;8.03;;;7.27;;
17524;SDS011;40431;52.198;9.902;2023-08-24T06:20:40;8.20;;;7.70;;
17524;SDS011;40431;52.198;9.902;2023-08-24T06:23:07;8.77;;;7.77;;
17524;SDS011;40431;52.198;9.902;2023-08-24T06:25:33;8.50;;;7.90;;
17524;SDS011;40431;52.198;9.902;2023-08-24T06:28:01;7.80;;;7.03;;
17524;SDS011;40431;52.198;9.902;2023-08-24T06:30:29;7.47;;;6.97;;
17524;SDS011;40431;52.198;9.902;2023-08-24T06:32:57;7.97;;;7.40;;
17524;SDS011;40431;52.198;9.902;2023-08-24T06:35:25;7.13;;;6.73;;
17524;SDS011;40431;52.198;9.902;2023-08-24T06:37:52;8.60;;;7.80;;
17524;SDS011;40431;52.198;9.902;2023-08-24T06:40:18;9.83;;;8.90;;
17524;SDS011;40431;52.198;9.902;2023-08-24T06:42:45;9.63;;;8.83;;
17524;SDS011;40431;52.198;9.902;2023-08-24T06:45:11;9.00;;;8.10;;
17524;SDS011;40431;52.198;9.902;2023-08-24T06:47:38;10.80;;;9.73;;
17524;SDS011;40431;52.198;9.902;2023-08-24T06:50:06;9.33;;;8.47;;
17524;SDS011;40431;52.198;9.902;2023-08-24T06:52:34;9.43;;;8.73;;
17524;SDS011;40431;52.198;9.902;2023-08-24T06:55:00;9.20;;;8.40;;
17524;SDS011;40431;52.198;9.902;2023-08-24T06:57:27;11.90;;;9.10;;
17524;SDS011;40431;52.198;9.902;2023-08-24T06:59:54;14.10;;;8.33;;
17524;SDS011;40431;52.198;9.902;2023-08-24T07:02:20;11.70;;;8.80;;
17524;SDS011;40431;52.198;9.902;2023-08-24T07:04:47;15.53;;;9.33;;
17524;SDS011;40431;52.198;9.902;2023-08-24T07:07:14;9.57;;;8.60;;
17524;SDS011;40431;52.198;9.902;2023-08-24T07:09:41;11.43;;;8.30;;
17524;SDS011;40431;52.198;9.902;2023-08-24T07:12:08;16.07;;;7.53;;
17524;SDS011;40431;52.198;9.902;2023-08-24T07:14:35;7.83;;;7.13;;
17524;SDS011;40431;52.198;9.902;2023-08-24T07:17:01;9.97;;;7.47;;
17524;SDS011;40431;52.198;9.902;2023-08-24T07:19:28;8.33;;;7.20;;
17524;SDS011;40431;52.198;9.902;2023-08-24T07:21:54;7.07;;;6.43;;
17524;SDS011;40431;52.198;9.902;2023-08-24T07:24:21;7.50;;;6.90;;
17524;SDS011;40431;52.198;9.902;2023-08-24T07:26:52;10.20;;;6.83;;
17524;SDS011;40431;52.198;9.902;2023-08-24T07:29:19;7.77;;;7.13;;
17524;SDS011;40431;52.198;9.902;2023-08-24T07:31:45;7.33;;;6.70;;
17524;SDS011;40431;52.198;9.902;2023-08-24T07:34:11;7.27;;;6.77;;
17524;SDS011;40431;52.198;9.902;2023-08-24T07:36:38;7.30;;;6.70;;
17524;SDS011;40431;52.198;9.902;2023-08-24T07:39:04;6.33;;;5.77;;
17524;SDS011;40431;52.198;9.902;2023-08-24T07:41:31;6.73;;;6.33;;
17524;SDS011;40431;52.198;9.902;2023-08-24T07:43:58;5.57;;;5.20;;
17524;SDS011;40431;52.198;9.902;2023-08-24T07:46:25;6.77;;;6.20;;
17524;SDS011;40431;52.198;9.902;2023-08-24T07:48:51;6.00;;;5.43;;
17524;SDS011;40431;52.198;9.902;2023-08-24T07:51:18;5.73;;;5.23;;
17524;SDS011;40431;52.198;9.902;2023-08-24T07:53:44;5.00;;;4.60;;
17524;SDS011;40431;52.198;9.902;2023-08-24T07:56:11;6.40;;;4.80;;
17524;SDS011;40431;52.198;9.902;2023-08-24T07:58:37;5.20;;;4.33;;
17524;SDS011;40431;52.198;9.902;2023-08-24T08:01:04;5.47;;;4.97;;
17524;SDS011;40431;52.198;9.902;2023-08-24T08:03:30;5.30;;;4.90;;
17524;SDS011;40431;52.198;9.902;2023-08-24T08:05:57;5.73;;;5.10;;
17524;SDS011;40431;52.198;9.902;2023-08-24T08:08:23;5.23;;;4.77;;
17524;SDS011;40431;52.198;9.902;2023-08-24T08:10:57;5.90;;;4.73;;
17524;SDS011;40431;52.198;9.902;2023-08-24T08:13:24;5.57;;;4.97;;
17524;SDS011;40431;52.198;9.902;2023-08-24T08:15:51;9.27;;;4.33;;
17524;SDS011;40431;52.198;9.902;2023-08-24T08:18:19;5.77;;;3.77;;
17524;SDS011;40431;52.198;9.902;2023-08-24T08:20:46;4.10;;;3.70;;
17524;SDS011;40431;52.198;9.902;2023-08-24T08:23:16;6.03;;;4.30;;
17524;SDS011;40431;52.198;9.902;2023-08-24T08:25:43;3.63;;;3.33;;
17524;SDS011;40431;52.198;9.902;2023-08-24T08:28:09;5.47;;;4.03;;
17524;SDS011;40431;52.198;9.902;2023-08-24T08:30:36;6.83;;;3.87;;
17524;SDS011;40431;52.198;9.902;2023-08-24T08:33:02;4.13;;;3.73;;
17524;SDS011;40431;52.198;9.902;2023-08-24T08:35:31;7.90;;;3.90;;
17524;SDS011;40431;52.198;9.902;2023-08-24T08:37:57;5.87;;;4.17;;
17524;SDS011;40431;52.198;9.902;2023-08-24T08:40:24;6.93;;;4.37;;
17524;SDS011;40431;52.198;9.902;2023-08-24T08:42:54;6.47;;;4.37;;
17524;SDS011;40431;52.198;9.902;2023-08-24T08:45:21;5.00;;;4.50;;
17524;SDS011;40431;52.198;9.902;2023-08-24T08:47:50;4.73;;;4.07;;
17524;SDS011;40431;52.198;9.902;2023-08-24T08:50:17;3.87;;;3.57;;
17524;SDS011;40431;52.198;9.902;2023-08-24T08:52:45;4.60;;;4.20;;
17524;SDS011;40431;52.198;9.902;2023-08-24T08:55:11;5.47;;;4.00;;
17524;SDS011;40431;52.198;9.902;2023-08-24T08:57:40;4.07;;;3.67;;
17524;SDS011;40431;52.198;9.902;2023-08-24T09:00:10;5.00;;;3.70;;
17524;SDS011;40431;52.198;9.902;2023-08-24T09:02:39;5.30;;;3.80;;
17524;SDS011;40431;52.198;9.902;2023-08-24T09:05:08;4.60;;;4.13;;
17524;SDS011;40431;52.198;9.902;2023-08-24T09:07:35;4.83;;;4.43;;
17524;SDS011;40431;52.198;9.902;2023-08-24T09:10:06;4.87;;;4.27;;
17524;SDS011;40431;52.198;9.902;2023-08-24T09:12:33;6.87;;;3.70;;
17524;SDS011;40431;52.198;9.902;2023-08-24T09:15:02;5.37;;;3.90;;
17524;SDS011;40431;52.198;9.902;2023-08-24T09:17:29;5.67;;;3.93;;
17524;SDS011;40431;52.198;9.902;2023-08-24T09:19:57;4.03;;;3.73;;
17524;SDS011;40431;52.198;9.902;2023-08-24T09:22:25;5.47;;;3.43;;
17524;SDS011;40431;52.198;9.902;2023-08-24T09:24:51;4.77;;;3.53;;
17524;SDS011;40431;52.198;9.902;2023-08-24T09:27:21;3.57;;;3.33;;
17524;SDS011;40431;52.198;9.902;2023-08-24T09:29:48;3.77;;;3.47;;
17524;SDS011;40431;52.198;9.902;2023-08-24T09:32:15;6.17;;;3.67;;
17524;SDS011;40431;52.198;9.902;2023-08-24T09:34:47;3.70;;;3.40;;
17524;SDS011;40431;52.198;9.902;2023-08-24T09:37:13;4.07;;;3.17;;
17524;SDS011;40431;52.198;9.902;2023-08-24T09:39:40;4.87;;;4.37;;
17524;SDS011;40431;52.198;9.902;2023-08-24T09:42:07;4.03;;;3.37;;
17524;SDS011;40431;52.198;9.902;2023-08-24T09:44:35;6.17;;;3.67;;
17524;SDS011;40431;52.198;9.902;2023-08-24T09:47:01;4.33;;;3.93;;
17524;SDS011;40431;52.198;9.902;2023-08-24T09:49:28;4.83;;;3.10;;
17524;SDS011;40431;52.198;9.902;2023-08-24T09:51:55;3.50;;;3.07;;
17524;SDS011;40431;52.198;9.902;2023-08-24T09:54:24;4.17;;;3.50;;
17524;SDS011;40431;52.198;9.902;2023-08-24T09:56:52;5.53;;;3.47;;
17524;SDS011;40431;52.198;9.902;2023-08-24T09:59:21;3.73;;;3.33;;
17524;SDS011;40431;52.198;9.902;2023-08-24T10:01:51;3.63;;;3.23;;
17524;SDS011;40431;52.198;9.902;2023-08-24T10:04:22;5.00;;;3.63;;
17524;SDS011;40431;52.198;9.902;2023-08-24T10:06:51;3.27;;;2.97;;
17524;SDS011;40431;52.198;9.902;2023-08-24T10:09:21;4.87;;;3.10;;
17524;SDS011;40431;52.198;9.902;2023-08-24T10:11:52;5.90;;;3.50;;
17524;SDS011;40431;52.198;9.902;2023-08-24T10:14:24;4.67;;;3.83;;
17524;SDS011;40431;52.198;9.902;2023-08-24T10:16:56;6.33;;;4.07;;
17524;SDS011;40431;52.198;9.902;2023-08-24T10:19:23;6.03;;;3.70;;
17524;SDS011;40431;52.198;9.902;2023-08-24T10:21:51;7.07;;;3.83;;
17524;SDS011;40431;52.198;9.902;2023-08-24T10:24:22;4.40;;;3.33;;
17524;SDS011;40431;52.198;9.902;2023-08-24T10:26:49;4.80;;;3.50;;
17524;SDS011;40431;52.198;9.902;2023-08-24T10:29:16;3.70;;;3.00;;
17524;SDS011;40431;52.198;9.902;2023-08-24T10:31:43;6.73;;;3.10;;
17524;SDS011;40431;52.198;9.902;2023-08-24T10:34:12;4.17;;;3.53;;
17524;SDS011;40431;52.198;9.902;2023-08-24T10:36:38;3.63;;;3.33;;
17524;SDS011;40431;52.198;9.902;2023-08-24T10:39:05;5.73;;;3.20;;
17524;SDS011;40431;52.198;9.902;2023-08-24T10:41:48;5.33;;;3.63;;
17524;SDS011;40431;52.198;9.902;2023-08-24T10:44:21;4.73;;;3.70;;
17524;SDS011;40431;52.198;9.902;2023-08-24T10:47:05;4.27;;;3.63;;
17524;SDS011;40431;52.198;9.902;2023-08-24T10:49:33;6.90;;;3.20;;
17524;SDS011;40431;52.198;9.902;2023-08-24T10:54:47;5.30;;;3.43;;
17524;SDS011;40431;52.198;9.902;2023-08-24T10:57:18;5.03;;;3.23;;
17524;SDS011;40431;52.198;9.902;2023-08-24T10:59:45;4.77;;;3.17;;
17524;SDS011;40431;52.198;9.902;2023-08-24T11:02:24;2.70;;;2.57;;
17524;SDS011;40431;52.198;9.902;2023-08-24T11:05:05;10.73;;;3.20;;
17524;SDS011;40431;52.198;9.902;2023-08-24T11:07:32;4.90;;;2.57;;
17524;SDS011;40431;52.198;9.902;2023-08-24T11:09:58;6.40;;;3.13;;
17524;SDS011;40431;52.198;9.902;2023-08-24T11:12:24;10.40;;;3.77;;
17524;SDS011;40431;52.198;9.902;2023-08-24T11:14:53;3.67;;;2.80;;
17524;SDS011;40431;52.198;9.902;2023-08-24T11:17:23;3.27;;;2.70;;
17524;SDS011;40431;52.198;9.902;2023-08-24T11:19:51;3.13;;;2.83;;
17524;SDS011;40431;52.198;9.902;2023-08-24T11:22:21;2.50;;;2.30;;
17524;SDS011;40431;52.198;9.902;2023-08-24T11:24:49;4.27;;;2.50;;
17524;SDS011;40431;52.198;9.902;2023-08-24T11:27:15;2.50;;;2.30;;
17524;SDS011;40431;52.198;9.902;2023-08-24T11:29:42;4.93;;;2.80;;
17524;SDS011;40431;52.198;9.902;2023-08-24T11:32:08;8.13;;;2.40;;
17524;SDS011;40431;52.198;9.902;2023-08-24T11:34:34;3.00;;;2.80;;
17524;SDS011;40431;52.198;9.902;2023-08-24T11:37:02;3.93;;;3.10;;
17524;SDS011;40431;52.198;9.902;2023-08-24T11:39:30;3.97;;;2.70;;
17524;SDS011;40431;52.198;9.902;2023-08-24T11:41:58;2.10;;;1.90;;
17524;SDS011;40431;52.198;9.902;2023-08-24T11:44:25;3.47;;;2.27;;
17524;SDS011;40431;52.198;9.902;2023-08-24T11:46:52;3.27;;;2.40;;
17524;SDS011;40431;52.198;9.902;2023-08-24T11:49:18;2.33;;;2.13;;
17524;SDS011;40431;52.198;9.902;2023-08-24T11:51:45;1.87;;;1.77;;
17524;SDS011;40431;52.198;9.902;2023-08-24T11:54:15;3.23;;;2.40;;
17524;SDS011;40431;52.198;9.902;2023-08-24T11:56:43;3.40;;;2.17;;
17524;SDS011;40431;52.198;9.902;2023-08-24T11:59:11;3.33;;;2.00;;
17524;SDS011;40431;52.198;9.902;2023-08-24T12:01:38;2.67;;;2.47;;
17524;SDS011;40431;52.198;9.902;2023-08-24T12:04:05;5.43;;;2.30;;
17524;SDS011;40431;52.198;9.902;2023-08-24T12:06:32;2.90;;;1.87;;
17524;SDS011;40431;52.198;9.902;2023-08-24T12:08:58;4.10;;;2.67;;
17524;SDS011;40431;52.198;9.902;2023-08-24T12:11:25;3.93;;;2.50;;
17524;SDS011;40431;52.198;9.902;2023-08-24T12:13:54;3.03;;;2.67;;
17524;SDS011;40431;52.198;9.902;2023-08-24T12:16:22;3.97;;;2.40;;
17524;SDS011;40431;52.198;9.902;2023-08-24T12:18:50;3.43;;;2.60;;
17524;SDS011;40431;52.198;9.902;2023-08-24T12:21:17;3.27;;;2.20;;
17524;SDS011;40431;52.198;9.902;2023-08-24T12:23:54;3.70;;;2.20;;
17524;SDS011;40431;52.198;9.902;2023-08-24T12:26:21;2.43;;;2.23;;
17524;SDS011;40431;52.198;9.902;2023-08-24T12:28:50;3.77;;;2.10;;
17524;SDS011;40431;52.198;9.902;2023-08-24T12:31:19;3.83;;;2.10;;
17524;SDS011;40431;52.198;9.902;2023-08-24T12:33:46;5.17;;;2.30;;
17524;SDS011;40431;52.198;9.902;2023-08-24T12:36:24;2.40;;;2.20;;
17524;SDS011;40431;52.198;9.902;2023-08-24T12:38:51;1.93;;;1.83;;
17524;SDS011;40431;52.198;9.902;2023-08-24T12:41:17;2.23;;;2.03;;
17524;SDS011;40431;52.198;9.902;2023-08-24T12:43:44;2.83;;;2.20;;
17524;SDS011;40431;52.198;9.902;2023-08-24T12:46:10;6.87;;;2.10;;
17524;SDS011;40431;52.198;9.902;2023-08-24T12:48:38;4.57;;;2.80;;
17524;SDS011;40431;52.198;9.902;2023-08-24T12:51:04;1.90;;;1.80;;
17524;SDS011;40431;52.198;9.902;2023-08-24T12:53:31;2.77;;;1.70;;
17524;SDS011;40431;52.198;9.902;2023-08-24T12:55:57;2.47;;;1.87;;
17524;SDS011;40431;52.198;9.902;2023-08-24T12:58:23;2.53;;;1.90;;
17524;SDS011;40431;52.198;9.902;2023-08-24T13:00:50;3.23;;;1.73;;
17524;SDS011;40431;52.198;9.902;2023-08-24T13:03:16;1.80;;;1.67;;
17524;SDS011;40431;52.198;9.902;2023-08-24T13:05:44;2.80;;;1.97;;
17524;SDS011;40431;52.198;9.902;2023-08-24T13:08:12;2.17;;;1.90;;
17524;SDS011;40431;52.198;9.902;2023-08-24T13:10:39;2.33;;;1.73;;
17524;SDS011;40431;52.198;9.902;2023-08-24T13:13:05;2.37;;;1.67;;
17524;SDS011;40431;52.198;9.902;2023-08-24T13:15:32;2.10;;;1.57;;
17524;SDS011;40431;52.198;9.902;2023-08-24T13:17:58;2.17;;;1.90;;
17524;SDS011;40431;52.198;9.902;2023-08-24T13:20:24;3.20;;;2.10;;
17524;SDS011;40431;52.198;9.902;2023-08-24T13:22:53;3.27;;;1.80;;
17524;SDS011;40431;52.198;9.902;2023-08-24T13:25:19;2.43;;;2.00;;
17524;SDS011;40431;52.198;9.902;2023-08-24T13:27:46;2.93;;;1.70;;
17524;SDS011;40431;52.198;9.902;2023-08-24T13:30:12;2.17;;;1.90;;
17524;SDS011;40431;52.198;9.902;2023-08-24T13:32:39;3.47;;;2.07;;
17524;SDS011;40431;52.198;9.902;2023-08-24T13:35:06;2.97;;;2.07;;
17524;SDS011;40431;52.198;9.902;2023-08-24T13:37:33;3.17;;;2.30;;
17524;SDS011;40431;52.198;9.902;2023-08-24T13:40:01;3.17;;;2.20;;
17524;SDS011;40431;52.198;9.902;2023-08-24T13:42:28;3.50;;;2.53;;
17524;SDS011;40431;52.198;9.902;2023-08-24T13:44:55;3.20;;;2.43;;
17524;SDS011;40431;52.198;9.902;2023-08-24T13:47:21;3.77;;;2.17;;
17524;SDS011;40431;52.198;9.902;2023-08-24T13:49:47;4.07;;;2.10;;
17524;SDS011;40431;52.198;9.902;2023-08-24T13:52:15;2.63;;;2.07;;
17524;SDS011;40431;52.198;9.902;2023-08-24T13:54:44;2.17;;;1.90;;
17524;SDS011;40431;52.198;9.902;2023-08-24T13:57:12;3.60;;;2.07;;
17524;SDS011;40431;52.198;9.902;2023-08-24T13:59:38;4.90;;;2.07;;
17524;SDS011;40431;52.198;9.902;2023-08-24T14:02:05;5.83;;;2.30;;
17524;SDS011;40431;52.198;9.902;2023-08-24T14:04:32;3.00;;;2.00;;
17524;SDS011;40431;52.198;9.902;2023-08-24T14:06:58;6.00;;;2.43;;
17524;SDS011;40431;52.198;9.902;2023-08-24T14:09:25;4.70;;;2.13;;
17524;SDS011;40431;52.198;9.902;2023-08-24T14:11:51;7.10;;;2.20;;
17524;SDS011;40431;52.198;9.902;2023-08-24T14:14:19;4.60;;;2.40;;
17524;SDS011;40431;52.198;9.902;2023-08-24T14:16:45;3.40;;;2.03;;
17524;SDS011;40431;52.198;9.902;2023-08-24T14:19:12;4.70;;;2.00;;
17524;SDS011;40431;52.198;9.902;2023-08-24T14:21:38;2.90;;;2.50;;
17524;SDS011;40431;52.198;9.902;2023-08-24T14:24:05;2.83;;;2.17;;
17524;SDS011;40431;52.198;9.902;2023-08-24T14:26:31;2.80;;;2.50;;
17524;SDS011;40431;52.198;9.902;2023-08-24T14:28:57;2.50;;;1.93;;
17524;SDS011;40431;52.198;9.902;2023-08-24T14:31:27;3.50;;;1.93;;
17524;SDS011;40431;52.198;9.902;2023-08-24T14:33:54;2.13;;;1.97;;
17524;SDS011;40431;52.198;9.902;2023-08-24T14:36:21;3.50;;;2.03;;
17524;SDS011;40431;52.198;9.902;2023-08-24T14:38:49;2.93;;;2.30;;
17524;SDS011;40431;52.198;9.902;2023-08-24T14:41:16;3.03;;;1.90;;
17524;SDS011;40431;52.198;9.902;2023-08-24T14:43:43;2.90;;;2.00;;
17524;SDS011;40431;52.198;9.902;2023-08-24T14:46:10;2.13;;;1.70;;
17524;SDS011;40431;52.198;9.902;2023-08-24T14:48:38;3.53;;;1.67;;
17524;SDS011;40431;52.198;9.902;2023-08-24T14:51:05;2.33;;;1.90;;